Time;durP1;ratioP1;P1;durP2;ratioP2;P2;SDS_P1;SDS_P2;PMS_P1;PMS_P2;Temp;Humidity;BMP_temperature;BMP_pressure;BME280_temperature;BME280_humidity;BME280_pressure;Samples;Min_cycle;Max_cycle;Signal;HPM_P1;HPM_P2
2022/10/24 00:00:10;;;;;;;5.00;3.17;;;13.10;99.90;;;;;;5007141;28;20237;-85
2022/10/24 00:02:36;;;;;;;6.13;3.00;;;13.00;99.90;;;;;;4993526;28;20234;-82
2022/10/24 00:05:04;;;;;;;5.77;3.10;;;13.10;99.90;;;;;;5004155;28;20231;-84
2022/10/24 00:07:32;;;;;;;8.27;3.30;;;13.10;99.90;;;;;;5006275;28;20245;-84
2022/10/24 00:09:59;;;;;;;5.33;2.57;;;13.10;99.90;;;;;;5020630;28;20480;-84
2022/10/24 00:12:25;;;;;;;4.63;2.80;;;13.10;99.90;;;;;;5000939;28;20708;-85
2022/10/24 00:14:52;;;;;;;6.57;3.00;;;13.00;99.90;;;;;;5012441;28;20240;-83
2022/10/24 00:17:19;;;;;;;4.47;2.93;;;13.00;99.90;;;;;;5008558;28;20357;-81
2022/10/24 00:19:45;;;;;;;4.90;2.63;;;13.00;99.90;;;;;;5012079;28;20224;-81
2022/10/24 00:22:12;;;;;;;7.17;2.97;;;13.00;99.90;;;;;;5006544;28;20310;-82
2022/10/24 00:24:40;;;;;;;5.83;2.90;;;13.00;99.90;;;;;;5008553;28;20828;-82
2022/10/24 00:27:08;;;;;;;4.33;2.77;;;12.90;99.90;;;;;;5003020;28;20664;-88
2022/10/24 00:29:35;;;;;;;5.23;3.00;;;12.90;99.90;;;;;;5011732;28;20327;-83
2022/10/24 00:32:01;;;;;;;4.97;2.83;;;12.90;99.90;;;;;;5005321;28;20224;-86
2022/10/24 00:34:31;;;;;;;4.07;2.70;;;12.90;99.90;;;;;;5006133;28;20301;-82
2022/10/24 00:36:58;;;;;;;4.07;2.43;;;12.90;99.90;;;;;;5007952;28;20228;-83
2022/10/24 00:39:25;;;;;;;4.80;2.53;;;13.00;99.90;;;;;;5005904;28;20235;-80
2022/10/24 00:41:57;;;;;;;6.17;2.57;;;13.00;99.90;;;;;;5023033;28;20232;-80
2022/10/24 00:44:26;;;;;;;4.03;2.30;;;13.00;99.90;;;;;;5003260;28;20693;-80
2022/10/24 00:46:56;;;;;;;6.77;2.90;;;13.00;99.90;;;;;;5003803;28;20228;-81
2022/10/24 00:49:26;;;;;;;3.67;2.23;;;13.00;99.90;;;;;;5005891;28;20225;-81
2022/10/24 00:51:56;;;;;;;6.00;2.70;;;12.90;99.90;;;;;;5004489;28;20227;-81
2022/10/24 00:54:23;;;;;;;3.93;2.30;;;13.00;99.90;;;;;;5005739;28;20223;-81
2022/10/24 00:56:58;;;;;;;4.23;2.30;;;13.00;99.90;;;;;;5003504;28;20306;-81
2022/10/24 00:59:26;;;;;;;3.17;2.30;;;13.00;99.90;;;;;;5003485;28;20238;-82
2022/10/24 01:01:54;;;;;;;3.07;2.33;;;13.00;99.90;;;;;;5006307;28;20271;-86
2022/10/24 01:04:20;;;;;;;5.37;2.47;;;13.00;99.90;;;;;;5007335;28;20251;-86
2022/10/24 01:06:55;;;;;;;4.03;2.23;;;13.00;99.90;;;;;;5003099;28;20320;-85
2022/10/24 01:09:43;;;;;;;3.10;2.40;;;13.00;99.90;;;;;;5008150;28;20222;-81
2022/10/24 01:12:24;;;;;;;3.53;2.40;;;13.00;99.90;;;;;;5000258;28;20324;-81
2022/10/24 01:15:04;;;;;;;3.93;2.30;;;13.00;99.90;;;;;;5005785;28;20327;-81
2022/10/24 01:17:39;;;;;;;4.97;2.57;;;13.00;99.90;;;;;;5007687;28;20250;-82
2022/10/24 01:20:42;;;;;;;5.50;2.83;;;12.90;99.90;;;;;;5002592;28;20229;-81
2022/10/24 01:23:29;;;;;;;4.47;2.50;;;12.90;99.90;;;;;;5009435;28;20396;-80
2022/10/24 01:26:10;;;;;;;3.83;2.30;;;12.90;99.90;;;;;;5025649;28;20308;-83
2022/10/24 01:28:45;;;;;;;3.37;2.53;;;12.90;99.90;;;;;;5003940;28;20232;-80
2022/10/24 01:31:20;;;;;;;5.57;2.60;;;12.90;99.90;;;;;;5003000;28;20625;-80
2022/10/24 01:33:55;;;;;;;4.90;2.40;;;12.80;99.90;;;;;;5009658;28;20280;-80
2022/10/24 01:36:33;;;;;;;2.60;2.20;;;12.80;99.90;;;;;;5012211;28;20730;-81
2022/10/24 01:39:03;;;;;;;4.90;2.20;;;12.80;99.90;;;;;;5008895;28;20222;-83
2022/10/24 01:41:31;;;;;;;6.17;2.40;;;12.80;99.90;;;;;;4999149;28;20274;-83
2022/10/24 01:44:04;;;;;;;3.57;2.30;;;12.80;99.90;;;;;;5019378;28;20270;-81
2022/10/24 01:46:35;;;;;;;7.07;2.20;;;12.70;99.90;;;;;;5006288;28;20235;-81
2022/10/24 01:49:07;;;;;;;4.87;2.27;;;12.70;99.90;;;;;;5011292;28;20224;-83
2022/10/24 01:51:36;;;;;;;4.33;2.53;;;12.70;99.90;;;;;;5009760;28;20233;-81
2022/10/24 01:54:04;;;;;;;2.57;2.13;;;12.60;99.90;;;;;;5012676;28;20233;-83
2022/10/24 01:56:31;;;;;;;3.90;2.50;;;12.60;99.90;;;;;;5012379;28;20326;-82
2022/10/24 01:59:05;;;;;;;5.10;2.20;;;12.60;99.90;;;;;;5003171;28;20240;-83
2022/10/24 02:01:35;;;;;;;2.87;2.00;;;12.60;99.90;;;;;;5010542;28;20238;-82
2022/10/24 02:04:06;;;;;;;3.63;2.00;;;12.60;99.90;;;;;;5008027;28;20234;-84
2022/10/24 02:06:36;;;;;;;3.00;2.17;;;12.60;99.90;;;;;;5018667;28;20286;-81
2022/10/24 02:09:09;;;;;;;7.17;2.93;;;12.60;99.90;;;;;;5008469;28;21779;-82
2022/10/24 02:11:36;;;;;;;3.07;2.20;;;12.60;99.90;;;;;;5011507;28;20235;-83
2022/10/24 02:14:06;;;;;;;4.33;2.23;;;12.60;99.90;;;;;;5007116;28;20575;-82
2022/10/24 02:16:35;;;;;;;4.87;2.00;;;12.50;99.90;;;;;;5007682;28;20700;-82
2022/10/24 02:19:02;;;;;;;5.97;2.33;;;12.50;99.90;;;;;;5007794;28;20231;-82
2022/10/24 02:21:33;;;;;;;5.70;2.67;;;12.50;99.90;;;;;;5001205;28;20258;-83
2022/10/24 02:24:05;;;;;;;3.80;2.10;;;12.50;99.90;;;;;;5005173;28;20291;-82
2022/10/24 02:26:34;;;;;;;3.87;2.37;;;12.50;99.90;;;;;;5006575;28;20223;-81
2022/10/24 02:29:08;;;;;;;3.83;2.20;;;12.50;99.90;;;;;;5007029;28;20437;-81
2022/10/24 02:31:43;;;;;;;5.50;1.93;;;12.50;99.90;;;;;;5011982;28;20350;-82
2022/10/24 02:34:14;;;;;;;7.17;2.40;;;12.50;99.90;;;;;;5000349;28;20460;-82
2022/10/24 02:36:43;;;;;;;5.00;2.13;;;12.50;99.90;;;;;;5010652;28;20229;-82
2022/10/24 02:39:13;;;;;;;3.83;2.10;;;12.40;99.90;;;;;;5007668;28;20316;-81
2022/10/24 02:41:42;;;;;;;4.40;2.63;;;12.40;99.90;;;;;;5007805;28;20333;-82
2022/10/24 02:44:10;;;;;;;4.90;2.63;;;12.40;99.90;;;;;;5002337;28;20237;-82
2022/10/24 02:46:39;;;;;;;6.97;2.83;;;12.40;99.90;;;;;;5019162;28;20256;-82
2022/10/24 02:49:06;;;;;;;5.97;2.30;;;12.30;99.90;;;;;;5000861;28;20224;-82
2022/10/24 02:51:36;;;;;;;3.80;2.30;;;12.30;99.90;;;;;;5008687;28;20242;-82
2022/10/24 02:54:04;;;;;;;4.23;2.10;;;12.30;99.90;;;;;;5006580;28;20341;-82
2022/10/24 02:56:31;;;;;;;3.43;2.27;;;12.30;99.90;;;;;;5009125;28;20258;-82
2022/10/24 02:58:59;;;;;;;3.90;2.30;;;12.30;99.90;;;;;;5002395;28;20227;-83
2022/10/24 03:01:26;;;;;;;4.00;2.30;;;12.30;99.90;;;;;;5000400;28;20626;-84
2022/10/24 03:03:54;;;;;;;4.83;2.20;;;12.30;99.90;;;;;;4999812;28;20341;-82
2022/10/24 03:06:21;;;;;;;4.47;2.13;;;12.20;99.90;;;;;;5005455;28;20663;-83
2022/10/24 03:08:47;;;;;;;6.87;2.70;;;12.20;99.90;;;;;;5008524;28;20248;-84
2022/10/24 03:11:14;;;;;;;4.63;2.50;;;12.20;99.90;;;;;;5003794;28;20318;-82
2022/10/24 03:13:41;;;;;;;4.90;2.50;;;12.20;99.90;;;;;;5006360;28;20313;-83
2022/10/24 03:16:07;;;;;;;6.00;2.57;;;12.20;99.90;;;;;;5009285;28;21310;-82
2022/10/24 03:18:34;;;;;;;4.80;2.50;;;12.20;99.90;;;;;;5003158;28;20281;-83
2022/10/24 03:21:02;;;;;;;5.70;2.60;;;12.20;99.90;;;;;;5001584;28;20221;-83
2022/10/24 03:23:29;;;;;;;7.63;2.37;;;12.20;99.90;;;;;;5007930;28;20299;-81
2022/10/24 03:25:57;;;;;;;6.07;2.50;;;12.20;99.90;;;;;;5010704;28;20226;-81
2022/10/24 03:28:24;;;;;;;8.27;2.50;;;12.10;99.90;;;;;;5018895;28;20235;-81
2022/10/24 03:30:52;;;;;;;3.63;2.30;;;12.10;99.90;;;;;;5004671;28;20294;-82
2022/10/24 03:33:19;;;;;;;4.03;2.23;;;12.10;99.90;;;;;;5004450;28;20725;-82
2022/10/24 03:35:45;;;;;;;4.77;2.50;;;12.10;99.90;;;;;;5006212;28;20222;-82
2022/10/24 03:38:13;;;;;;;5.57;2.47;;;12.10;99.90;;;;;;5006080;28;20221;-82
2022/10/24 03:40:41;;;;;;;5.17;2.50;;;12.10;99.90;;;;;;5010279;28;20298;-81
2022/10/24 03:43:08;;;;;;;3.80;2.63;;;12.10;99.90;;;;;;5001439;28;20216;-82
2022/10/24 03:45:36;;;;;;;3.77;2.50;;;12.00;99.90;;;;;;5008164;28;20219;-82
2022/10/24 03:48:05;;;;;;;5.17;2.60;;;12.00;99.90;;;;;;5006722;28;20354;-83
2022/10/24 03:50:33;;;;;;;2.97;2.40;;;12.10;99.90;;;;;;5007975;28;20276;-82
2022/10/24 03:52:59;;;;;;;4.63;2.70;;;12.00;99.90;;;;;;5027794;28;20225;-82
2022/10/24 03:55:28;;;;;;;6.67;2.77;;;12.00;99.90;;;;;;5006557;28;20232;-83
2022/10/24 03:57:56;;;;;;;3.00;2.53;;;12.00;99.90;;;;;;5010529;28;20217;-82
2022/10/24 04:00:24;;;;;;;5.33;2.47;;;11.90;99.90;;;;;;5002802;28;20222;-81
2022/10/24 04:02:51;;;;;;;10.57;3.27;;;11.90;99.90;;;;;;4999447;28;20221;-83
2022/10/24 04:05:18;;;;;;;5.40;2.50;;;11.90;99.90;;;;;;5001929;28;20237;-84
2022/10/24 04:07:44;;;;;;;3.73;2.70;;;11.80;99.90;;;;;;5007799;28;20372;-83
2022/10/24 04:10:11;;;;;;;6.87;2.70;;;11.80;99.90;;;;;;5002601;28;20267;-82
2022/10/24 04:12:39;;;;;;;6.23;2.80;;;11.90;99.90;;;;;;5001237;28;20312;-83
2022/10/24 04:15:07;;;;;;;8.47;2.67;;;11.90;99.90;;;;;;5002078;28;20333;-83
2022/10/24 04:17:34;;;;;;;7.63;2.60;;;11.80;99.90;;;;;;5019096;28;20797;-81
2022/10/24 04:20:00;;;;;;;4.97;2.60;;;11.90;99.90;;;;;;5004194;28;20683;-83
2022/10/24 04:22:27;;;;;;;5.27;3.33;;;11.90;99.90;;;;;;5004203;28;20221;-83
2022/10/24 04:24:54;;;;;;;4.30;2.83;;;11.90;99.90;;;;;;5011278;28;20673;-84
2022/10/24 04:27:20;;;;;;;7.03;2.77;;;11.80;99.90;;;;;;5003021;28;20765;-83
2022/10/24 04:29:48;;;;;;;3.80;2.70;;;11.80;99.90;;;;;;5009133;28;20259;-83
2022/10/24 04:32:15;;;;;;;7.53;2.83;;;11.80;99.90;;;;;;5000545;28;20311;-83
2022/10/24 04:34:42;;;;;;;7.23;3.37;;;11.80;99.90;;;;;;5004515;28;20227;-83
2022/10/24 04:37:08;;;;;;;4.20;2.60;;;11.80;99.90;;;;;;4998109;28;20232;-83
2022/10/24 04:39:35;;;;;;;8.03;3.17;;;11.80;99.90;;;;;;5004066;28;20320;-81
2022/10/24 04:42:05;;;;;;;6.07;2.80;;;11.70;99.90;;;;;;5002703;28;20697;-82
2022/10/24 04:44:32;;;;;;;6.73;3.60;;;11.80;99.90;;;;;;5007416;28;20238;-81
2022/10/24 04:47:00;;;;;;;4.97;3.03;;;11.70;99.90;;;;;;5003877;28;20218;-82
2022/10/24 04:49:27;;;;;;;6.67;2.90;;;11.70;99.90;;;;;;5005977;28;20232;-82
2022/10/24 04:51:53;;;;;;;5.67;3.00;;;11.70;99.90;;;;;;5005308;28;20231;-82
2022/10/24 04:54:20;;;;;;;7.60;3.27;;;11.70;99.90;;;;;;5001461;28;20286;-83
2022/10/24 04:56:47;;;;;;;4.27;3.27;;;11.70;99.90;;;;;;5000916;28;20238;-81
2022/10/24 04:59:13;;;;;;;12.47;3.30;;;11.70;99.90;;;;;;5008481;28;20226;-81
2022/10/24 05:01:40;;;;;;;6.43;3.30;;;11.70;99.90;;;;;;4999160;28;20863;-80
2022/10/24 05:04:08;;;;;;;6.67;3.23;;;11.70;99.90;;;;;;5002764;28;20233;-82
2022/10/24 05:06:35;;;;;;;4.53;2.90;;;11.60;99.90;;;;;;4998860;28;20246;-81
2022/10/24 05:09:03;;;;;;;5.60;3.37;;;11.60;99.90;;;;;;5009283;28;20226;-84
2022/10/24 05:11:30;;;;;;;4.47;3.10;;;11.60;99.90;;;;;;5008505;28;20289;-83
2022/10/24 05:13:59;;;;;;;7.37;3.20;;;11.60;99.90;;;;;;5006635;28;20316;-82
2022/10/24 05:16:26;;;;;;;7.77;3.27;;;11.60;99.90;;;;;;5008601;28;20221;-85
2022/10/24 05:18:53;;;;;;;6.67;3.30;;;11.60;99.90;;;;;;5011053;28;20231;-82
2022/10/24 05:21:21;;;;;;;7.80;3.67;;;11.60;99.90;;;;;;5011193;28;20226;-84
2022/10/24 05:23:48;;;;;;;6.00;2.67;;;11.60;99.90;;;;;;5002551;28;20275;-80
2022/10/24 05:26:14;;;;;;;6.67;3.00;;;11.50;99.90;;;;;;5003971;28;20606;-81
2022/10/24 05:28:41;;;;;;;10.20;3.37;;;11.50;99.90;;;;;;5002845;28;20225;-80
2022/10/24 05:31:08;;;;;;;5.03;2.87;;;11.60;99.90;;;;;;5012060;28;20704;-80
2022/10/24 05:33:34;;;;;;;5.03;3.07;;;11.60;99.90;;;;;;5005058;28;20257;-80
2022/10/24 05:36:01;;;;;;;5.53;3.17;;;11.50;99.90;;;;;;5000603;28;20223;-80
2022/10/24 05:38:29;;;;;;;7.67;3.50;;;11.50;99.90;;;;;;5003810;28;20328;-80
2022/10/24 05:40:56;;;;;;;7.27;3.20;;;11.60;99.90;;;;;;5004046;28;20241;-80
2022/10/24 05:43:23;;;;;;;7.00;3.20;;;11.60;99.90;;;;;;5005761;28;20315;-80
2022/10/24 05:45:50;;;;;;;8.77;3.10;;;11.60;99.90;;;;;;5004576;28;20233;-80
2022/10/24 05:48:17;;;;;;;8.80;3.37;;;11.60;99.90;;;;;;5005831;28;20735;-80
2022/10/24 05:50:43;;;;;;;7.40;2.90;;;11.60;99.90;;;;;;5009918;28;20320;-80
2022/10/24 05:53:11;;;;;;;5.20;3.17;;;11.60;99.90;;;;;;5004257;28;20234;-80
2022/10/24 05:55:39;;;;;;;5.90;3.60;;;11.60;99.90;;;;;;5001463;28;20312;-80
2022/10/24 05:58:06;;;;;;;10.57;7.10;;;11.70;99.90;;;;;;4997285;28;20718;-79
2022/10/24 06:00:33;;;;;;;11.67;3.80;;;11.70;99.90;;;;;;5004472;28;20255;-80
2022/10/24 06:03:00;;;;;;;7.80;3.40;;;11.70;99.90;;;;;;5002853;28;20221;-80
2022/10/24 06:05:27;;;;;;;6.00;3.37;;;11.70;99.90;;;;;;5006918;28;20233;-79
2022/10/24 06:07:53;;;;;;;9.27;4.93;;;11.70;99.90;;;;;;5004806;28;20221;-81
2022/10/24 06:10:20;;;;;;;8.30;5.60;;;11.70;99.90;;;;;;5002986;28;20232;-82
2022/10/24 06:12:48;;;;;;;12.67;7.63;;;11.80;99.90;;;;;;5002530;28;20247;-80
2022/10/24 06:15:15;;;;;;;12.57;6.60;;;11.70;99.90;;;;;;5004077;28;20324;-82
2022/10/24 06:17:42;;;;;;;9.10;4.20;;;11.70;99.90;;;;;;5002238;28;20233;-81
2022/10/24 06:20:09;;;;;;;6.60;4.10;;;11.80;99.90;;;;;;4999553;28;20231;-81
2022/10/24 06:22:37;;;;;;;9.27;5.37;;;11.80;99.90;;;;;;5005548;28;20225;-81
2022/10/24 06:25:05;;;;;;;12.70;4.70;;;11.80;99.90;;;;;;5003733;28;20534;-80
2022/10/24 06:27:31;;;;;;;20.17;9.23;;;11.80;99.90;;;;;;5021372;28;20225;-82
2022/10/24 06:29:59;;;;;;;7.87;4.60;;;11.80;99.90;;;;;;5003408;28;20706;-82
2022/10/24 06:32:26;;;;;;;8.90;4.60;;;11.80;99.90;;;;;;5004592;28;20226;-83
2022/10/24 06:34:53;;;;;;;10.50;6.57;;;11.80;99.90;;;;;;5005258;28;20222;-82
2022/10/24 06:37:19;;;;;;;10.20;4.23;;;11.80;99.90;;;;;;5020197;28;20901;-86
2022/10/24 06:39:46;;;;;;;6.23;3.60;;;11.80;99.90;;;;;;5000672;28;20227;-83
2022/10/24 06:42:13;;;;;;;5.97;3.37;;;11.80;99.90;;;;;;5008485;28;20598;-83
2022/10/24 06:44:41;;;;;;;6.07;3.50;;;11.80;99.90;;;;;;5006283;28;20863;-82
2022/10/24 06:47:11;;;;;;;5.70;3.37;;;11.90;99.90;;;;;;5003277;28;20233;-83
2022/10/24 06:49:38;;;;;;;7.30;3.30;;;11.90;99.90;;;;;;5007670;28;20257;-83
2022/10/24 06:52:06;;;;;;;5.10;3.00;;;11.90;99.90;;;;;;5005759;28;20250;-83
2022/10/24 06:54:34;;;;;;;6.97;3.07;;;12.00;99.90;;;;;;5005166;28;20242;-81
2022/10/24 06:57:01;;;;;;;8.23;2.63;;;12.00;99.90;;;;;;5001712;28;20432;-82
2022/10/24 06:59:30;;;;;;;7.17;3.10;;;12.00;99.90;;;;;;5002545;28;20666;-81
2022/10/24 07:01:57;;;;;;;7.80;2.63;;;12.00;99.90;;;;;;5008322;28;20227;-81
2022/10/24 07:04:25;;;;;;;4.80;2.80;;;12.10;99.90;;;;;;5002921;28;20424;-82
2022/10/24 07:06:52;;;;;;;6.23;3.10;;;12.10;99.90;;;;;;4998125;28;20528;-81
2022/10/24 07:09:19;;;;;;;8.57;2.80;;;12.10;99.90;;;;;;5004482;28;20233;-82
2022/10/24 07:11:45;;;;;;;7.37;2.87;;;12.20;99.90;;;;;;5004646;28;20228;-82
2022/10/24 07:14:14;;;;;;;6.00;2.93;;;12.20;99.90;;;;;;4999372;28;20253;-81
2022/10/24 07:16:41;;;;;;;6.60;2.70;;;12.20;99.90;;;;;;5020365;28;20233;-82
2022/10/24 07:19:08;;;;;;;6.60;2.63;;;12.20;99.90;;;;;;5017966;28;21248;-81
2022/10/24 07:21:36;;;;;;;7.17;3.07;;;12.30;99.90;;;;;;5002382;28;20228;-83
2022/10/24 07:24:03;;;;;;;6.00;3.00;;;12.30;99.90;;;;;;4997664;28;20236;-84
2022/10/24 07:26:31;;;;;;;7.30;2.80;;;12.30;99.90;;;;;;4999753;28;20540;-81
2022/10/24 07:28:59;;;;;;;4.83;2.70;;;12.40;99.90;;;;;;5015749;28;21133;-80
2022/10/24 07:31:28;;;;;;;5.30;2.77;;;12.40;99.90;;;;;;5007780;28;20227;-80
2022/10/24 07:33:55;;;;;;;7.80;2.67;;;12.50;99.90;;;;;;5003747;28;20223;-80
2022/10/24 07:36:24;;;;;;;6.57;2.97;;;12.50;99.90;;;;;;5005434;28;20228;-80
2022/10/24 07:38:56;;;;;;;5.30;2.60;;;12.50;99.90;;;;;;5001541;28;20260;-80
2022/10/24 07:41:24;;;;;;;8.03;3.30;;;12.60;99.90;;;;;;5003046;28;20778;-80
2022/10/24 07:43:54;;;;;;;7.63;2.60;;;12.60;99.90;;;;;;5006140;28;20242;-80
2022/10/24 07:46:21;;;;;;;8.07;3.00;;;12.70;99.90;;;;;;5005075;28;20259;-80
2022/10/24 07:48:49;;;;;;;9.33;3.00;;;12.70;99.90;;;;;;5006872;28;20225;-81
2022/10/24 07:51:16;;;;;;;6.13;2.63;;;12.80;99.90;;;;;;5005765;28;20254;-80
2022/10/24 07:53:43;;;;;;;8.27;2.80;;;12.80;99.90;;;;;;5005098;28;20312;-80
2022/10/24 07:56:14;;;;;;;6.03;3.03;;;12.90;99.90;;;;;;5012924;28;20568;-80
2022/10/24 07:58:42;;;;;;;6.93;2.87;;;13.00;99.90;;;;;;5003983;28;20755;-80
2022/10/24 08:01:12;;;;;;;5.90;3.13;;;13.00;99.90;;;;;;5009603;28;20226;-80
2022/10/24 08:03:39;;;;;;;6.47;3.00;;;13.10;99.90;;;;;;5006451;28;20358;-80
2022/10/24 08:06:10;;;;;;;5.30;2.80;;;13.10;99.90;;;;;;5007612;28;20310;-80
2022/10/24 08:08:39;;;;;;;8.67;2.97;;;13.20;99.90;;;;;;5003611;28;20226;-80
2022/10/24 08:11:11;;;;;;;5.93;2.77;;;13.40;99.90;;;;;;5001938;28;20228;-80
2022/10/24 08:13:38;;;;;;;6.90;3.10;;;13.40;99.90;;;;;;5004329;28;20255;-81
2022/10/24 08:16:06;;;;;;;6.90;2.63;;;13.50;99.90;;;;;;5003726;28;20235;-81
2022/10/24 08:18:33;;;;;;;6.20;3.00;;;13.70;99.90;;;;;;4995945;28;20227;-81
2022/10/24 08:21:01;;;;;;;7.83;3.10;;;13.80;99.90;;;;;;5050773;22;20236;-79
2022/10/24 08:23:29;;;;;;;9.07;3.80;;;14.00;99.90;;;;;;5024468;28;20739;-80
2022/10/24 08:25:55;;;;;;;4.87;2.57;;;14.30;99.90;;;;;;5021511;28;20249;-79
2022/10/24 08:28:27;;;;;;;5.57;2.63;;;14.60;99.90;;;;;;5022179;28;20218;-80
2022/10/24 08:30:57;;;;;;;6.43;2.63;;;15.00;99.90;;;;;;5023048;28;20240;-79
2022/10/24 08:33:24;;;;;;;6.40;2.80;;;15.30;99.90;;;;;;5018873;28;20231;-79
2022/10/24 08:35:52;;;;;;;8.17;2.70;;;15.70;99.90;;;;;;5013117;28;20235;-79
2022/10/24 08:38:22;;;;;;;10.37;2.60;;;16.10;99.90;;;;;;5013670;28;20229;-79
2022/10/24 08:40:49;;;;;;;7.97;2.50;;;16.40;99.90;;;;;;5016282;28;20234;-79
2022/10/24 08:43:17;;;;;;;8.67;2.93;;;16.80;99.90;;;;;;5014775;28;20299;-79
2022/10/24 08:45:54;;;;;;;6.97;2.70;;;17.00;99.90;;;;;;5031395;28;20231;-79
2022/10/24 08:48:27;;;;;;;9.50;2.53;;;17.20;99.90;;;;;;5026573;28;20236;-79
2022/10/24 08:51:00;;;;;;;6.13;2.47;;;17.40;99.90;;;;;;5025752;28;20688;-79
2022/10/24 08:53:30;;;;;;;4.80;2.27;;;17.60;99.90;;;;;;5013076;28;20220;-79
2022/10/24 08:56:01;;;;;;;5.50;2.50;;;17.70;99.90;;;;;;5028473;28;20572;-79
2022/10/24 08:58:32;;;;;;;8.23;2.50;;;17.90;99.90;;;;;;5018508;28;20233;-80
2022/10/24 09:01:04;;;;;;;7.37;2.70;;;18.10;99.90;;;;;;5017363;28;20240;-78
2022/10/24 09:03:35;;;;;;;4.47;2.40;;;18.30;99.90;;;;;;5020723;28;20227;-79
2022/10/24 09:06:06;;;;;;;4.47;2.23;;;18.40;99.90;;;;;;5022013;28;20590;-79
2022/10/24 09:08:42;;;;;;;5.13;2.70;;;18.50;99.90;;;;;;5026033;28;20342;-79
2022/10/24 09:11:16;;;;;;;7.43;2.30;;;18.60;99.90;;;;;;5023860;28;20245;-79
2022/10/24 09:13:43;;;;;;;5.97;2.70;;;18.60;99.90;;;;;;5017667;28;20334;-79
2022/10/24 09:16:23;;;;;;;6.00;2.37;;;18.60;99.90;;;;;;5025814;28;20213;-79
2022/10/24 09:18:53;;;;;;;6.37;2.20;;;18.50;99.90;;;;;;5014079;28;20260;-80
2022/10/24 09:21:21;;;;;;;6.60;2.17;;;18.30;99.90;;;;;;5018588;28;20512;-79
2022/10/24 09:23:49;;;;;;;7.67;2.33;;;18.10;99.90;;;;;;5009874;28;20227;-79
2022/10/24 09:26:22;;;;;;;4.17;2.00;;;18.00;99.90;;;;;;5019496;28;20596;-79
2022/10/24 09:28:49;;;;;;;4.70;1.87;;;17.90;99.90;;;;;;5026222;28;20316;-79
2022/10/24 09:31:19;;;;;;;5.30;2.67;;;17.80;99.90;;;;;;5026600;28;20227;-79
2022/10/24 09:33:49;;;;;;;7.73;2.30;;;17.80;99.90;;;;;;5016494;28;20228;-79
2022/10/24 09:36:19;;;;;;;5.10;2.13;;;17.80;99.90;;;;;;5016142;28;20223;-77
2022/10/24 09:38:49;;;;;;;7.20;2.23;;;18.00;99.90;;;;;;5021675;28;20246;-77
2022/10/24 09:41:20;;;;;;;4.90;2.40;;;18.20;99.90;;;;;;5018027;28;20722;-77
2022/10/24 09:43:54;;;;;;;6.37;2.23;;;18.20;99.90;;;;;;5010531;28;20235;-78
2022/10/24 09:46:26;;;;;;;7.67;2.73;;;18.10;99.90;;;;;;5029605;28;20239;-77
2022/10/24 09:48:55;;;;;;;6.37;2.30;;;18.10;99.90;;;;;;5026222;28;20265;-77
2022/10/24 09:51:27;;;;;;;9.20;2.60;;;17.80;99.90;;;;;;5025167;28;20230;-77
2022/10/24 09:54:25;;;;;;;6.03;2.13;;;17.70;99.90;;;;;;5024053;28;20213;-78
2022/10/24 09:56:58;;;;;;;7.00;2.10;;;17.60;99.90;;;;;;5025604;28;20247;-77
2022/10/24 09:59:40;;;;;;;4.40;1.97;;;17.60;99.90;;;;;;5026482;28;20248;-77
2022/10/24 10:02:24;;;;;;;6.67;2.60;;;17.50;99.90;;;;;;5020465;28;20235;-77
2022/10/24 10:05:18;;;;;;;6.13;2.40;;;17.40;99.90;;;;;;5019792;28;20700;-77
2022/10/24 10:07:48;;;;;;;9.37;2.10;;;17.40;99.90;;;;;;5020773;28;20252;-78
2022/10/24 10:10:28;;;;;;;7.80;2.00;;;17.40;99.90;;;;;;5022628;28;20227;-78
2022/10/24 10:13:02;;;;;;;7.27;2.27;;;17.50;99.90;;;;;;5019053;28;20477;-78
2022/10/24 10:15:36;;;;;;;7.33;2.43;;;17.60;99.90;;;;;;5024108;28;20239;-78
2022/10/24 10:18:06;;;;;;;6.47;1.97;;;17.70;99.90;;;;;;5016296;28;20212;-78
2022/10/24 10:20:39;;;;;;;7.13;2.50;;;17.80;99.90;;;;;;5022731;28;20320;-77
2022/10/24 10:23:25;;;;;;;6.97;1.97;;;17.90;99.90;;;;;;5027503;28;20230;-77
2022/10/24 10:26:19;;;;;;;4.93;1.63;;;18.10;99.90;;;;;;5020313;28;20240;-77
2022/10/24 10:29:01;;;;;;;5.37;2.07;;;18.30;99.90;;;;;;5023918;28;20240;-81
2022/10/24 10:31:42;;;;;;;6.43;2.30;;;18.50;99.90;;;;;;5028997;28;20287;-80
2022/10/24 10:34:21;;;;;;;7.40;2.27;;;18.80;99.90;;;;;;5029565;28;20320;-81
2022/10/24 10:37:07;;;;;;;8.53;2.23;;;19.00;99.90;;;;;;5022371;28;20228;-81
2022/10/24 10:40:02;;;;;;;7.30;2.05;;;19.20;99.90;;;;;;5030980;28;20253;-81
2022/10/24 10:42:36;;;;;;;8.55;2.00;;;19.50;99.90;;;;;;5022246;28;20229;-81
2022/10/24 10:45:18;;;;;;;4.03;1.95;;;19.80;99.90;;;;;;5025664;28;20221;-81
2022/10/24 10:47:54;;;;;;;4.60;1.63;;;20.00;99.90;;;;;;5020376;28;20293;-81
2022/10/24 10:50:32;;;;;;;3.70;1.50;;;20.00;99.90;;;;;;5029486;28;20573;-81
2022/10/24 10:53:11;;;;;;;5.22;2.13;;;20.20;99.90;;;;;;5026193;28;20245;-81
2022/10/24 10:55:45;;;;;;;5.40;1.95;;;20.40;99.90;;;;;;5023261;28;20243;-81
2022/10/24 10:58:23;;;;;;;7.35;2.03;;;20.50;99.90;;;;;;5027755;28;20452;-81
2022/10/24 11:01:00;;;;;;;6.82;1.83;;;20.50;99.90;;;;;;5026604;28;20292;-81
2022/10/24 11:03:35;;;;;;;6.03;2.08;;;20.60;99.90;;;;;;5021081;28;20499;-78
2022/10/24 11:06:17;;;;;;;6.78;1.65;;;20.70;99.90;;;;;;5008689;28;20220;-79
2022/10/24 11:09:03;;;;;;;4.22;1.85;;;20.60;98.40;;;;;;5025035;28;20498;-80
2022/10/24 11:11:32;;;;;;;6.97;1.73;;;20.60;99.40;;;;;;5023732;28;20829;-80
2022/10/24 11:14:14;;;;;;;3.55;1.75;;;20.50;98.90;;;;;;5020508;28;20225;-79
2022/10/24 11:16:42;;;;;;;5.85;1.70;;;20.40;99.20;;;;;;5025375;28;20224;-79
2022/10/24 11:19:14;;;;;;;6.55;1.67;;;20.40;99.80;;;;;;5018203;28;20232;-79
2022/10/24 11:21:43;;;;;;;6.65;1.73;;;20.40;99.60;;;;;;5018683;28;20236;-79
2022/10/24 11:24:15;;;;;;;6.40;1.70;;;20.40;99.40;;;;;;5018408;28;20500;-79
2022/10/24 11:26:46;;;;;;;8.23;1.80;;;20.40;98.90;;;;;;5016758;28;20254;-79
2022/10/24 11:29:19;;;;;;;3.35;1.42;;;20.40;99.40;;;;;;5027134;28;20235;-79
2022/10/24 11:31:49;;;;;;;6.00;2.03;;;20.30;98.90;;;;;;5025873;28;20224;-79
2022/10/24 11:34:22;;;;;;;4.30;1.60;;;20.20;98.20;;;;;;5027219;28;20717;-78
2022/10/24 11:36:56;;;;;;;6.97;2.10;;;20.20;99.20;;;;;;5022029;28;20459;-79
2022/10/24 11:39:27;;;;;;;6.20;1.40;;;20.20;98.70;;;;;;5019439;28;20244;-79
2022/10/24 11:41:59;;;;;;;6.10;1.23;;;20.20;98.40;;;;;;5040370;28;20232;-79
2022/10/24 11:44:34;;;;;;;4.22;1.63;;;20.00;97.20;;;;;;5027938;28;20252;-79
2022/10/24 11:47:10;;;;;;;6.60;1.47;;;20.00;98.20;;;;;;5022511;28;20928;-80
2022/10/24 11:49:40;;;;;;;5.53;1.53;;;20.00;98.30;;;;;;5026839;28;20256;-79
2022/10/24 11:52:16;;;;;;;5.33;1.20;;;20.10;98.60;;;;;;5022294;28;20229;-80
2022/10/24 11:54:49;;;;;;;8.43;1.87;;;20.00;97.90;;;;;;5028392;28;20726;-80
2022/10/24 11:57:21;;;;;;;4.47;1.40;;;19.80;98.20;;;;;;5023922;28;20234;-80
2022/10/24 11:59:51;;;;;;;4.53;1.23;;;19.70;98.10;;;;;;5039646;28;20564;-78
2022/10/24 12:02:55;;;;;;;3.90;1.40;;;19.50;98.30;;;;;;5023118;28;20299;-79
2022/10/24 12:05:45;;;;;;;4.23;1.30;;;19.40;98.40;;;;;;5022303;28;20444;-78
2022/10/24 12:08:47;;;;;;;4.47;1.20;;;19.20;98.60;;;;;;5016425;28;20771;-79
2022/10/24 12:11:34;;;;;;;4.27;1.40;;;19.20;99.00;;;;;;5014136;28;20221;-79
2022/10/24 12:14:29;;;;;;;4.13;1.50;;;19.00;99.10;;;;;;5016498;28;20251;-79
2022/10/24 12:17:15;;;;;;;3.33;1.70;;;19.00;99.20;;;;;;5016704;28;20772;-78
2022/10/24 12:19:44;;;;;;;3.40;1.10;;;18.80;99.30;;;;;;5028411;28;20289;-78
2022/10/24 12:22:17;;;;;;;3.40;1.43;;;18.80;99.60;;;;;;5018883;28;20251;-78
2022/10/24 12:24:45;;;;;;;5.13;1.40;;;18.70;99.70;;;;;;5018350;28;20233;-79
2022/10/24 12:27:25;;;;;;;4.63;1.40;;;18.60;99.90;;;;;;5016307;28;20703;-81
2022/10/24 12:30:01;;;;;;;5.50;1.60;;;18.60;99.80;;;;;;5006233;28;20241;-81
2022/10/24 12:32:37;;;;;;;4.63;1.57;;;18.60;99.90;;;;;;5010048;28;20235;-81
2022/10/24 12:35:46;;;;;;;4.27;1.40;;;18.70;99.90;;;;;;5014239;28;20656;-81
2022/10/24 12:38:49;;;;;;;3.73;1.10;;;18.70;99.50;;;;;;5017388;28;20227;-81
2022/10/24 12:41:46;;;;;;;2.57;1.10;;;18.70;99.50;;;;;;5023551;28;20240;-81
2022/10/24 12:44:45;;;;;;;9.10;1.67;;;18.70;99.30;;;;;;5021159;28;20224;-81
2022/10/24 12:47:31;;;;;;;7.83;1.10;;;18.50;99.30;;;;;;4977034;28;20250;-81
2022/10/24 12:49:59;;;;;;;4.50;1.07;;;18.40;99.40;;;;;;5025188;28;20223;-81
2022/10/24 12:53:01;;;;;;;3.13;1.20;;;18.30;99.80;;;;;;5022986;28;20235;-81
2022/10/24 12:55:47;;;;;;;3.63;1.30;;;18.20;99.90;;;;;;5028324;28;20689;-81
2022/10/24 12:58:22;;;;;;;5.50;1.47;;;18.20;99.90;;;;;;5016218;28;20606;-82
2022/10/24 13:00:55;;;;;;;3.07;1.33;;;18.10;99.90;;;;;;5019887;28;20327;-82
2022/10/24 13:03:33;;;;;;;4.43;1.30;;;18.10;99.90;;;;;;5022745;28;20282;-81
2022/10/24 13:06:06;;;;;;;3.90;1.00;;;18.10;99.90;;;;;;5016363;28;20257;-81